Historique des mesures à Cassis (13260), France
Quotidien Résumé Janvier 20, 2018 Unités:  Métrique    US   Métrique/US
« Précédent (Jour)
Suivant (Jour) »
Quotidien Hebdomadaire Mensuel Annuel Période au choix
  Maximum: Minimum: Moyenne:
Température: -17.8 °C -12.9 °C -12.1 °C
Point de rosée: -17.8 °C -18.7 °C -16 °C
Humidité: Humidity % 48 % 59 %
Vitesse du vent: 0 km/h 0 km/h 17.4 km/h
Rafales: 0 km/h - -
Vent:- - WSW
Pression: 0 hPa 34086.9 hPa -
Précipitations: 63.5 mm    
Historical Graphs
 
 
Mesures pour : Janvier 20, 2018
Heure Temperature Point de rosée Pression Vent Vitesse du vent Rafales Humidité Pluie (par heure) Conditions
-17.8 °C -17.8 °C 0 hPa Calm     Humidity % 0 mm SoftwareType W/m2
00:12 -12 °C -16.6 °C 34327.3 hPa NNW 17.9 km/h 27.2 km/h 57 % 0 mm open2300-1.11 W/m2
01:12 -12.1 °C -16.9 °C 34313.7 hPa NW 38.3 km/h 38.3 km/h 55 % 0 mm open2300-1.11 W/m2
02:12 -12.2 °C -17.3 °C 34303.6 hPa NW 19.6 km/h 19.6 km/h 53 % 0 mm open2300-1.11 W/m2
03:12 -12.3 °C -17.6 °C 34303.6 hPa WNW 46.8 km/h 46.8 km/h 51 % 0 mm open2300-1.11 W/m2
04:12 -12.5 °C -18 °C 34303.6 hPa NNW 36.5 km/h 36.5 km/h 50 % 0 mm open2300-1.11 W/m2
05:12 -12.6 °C -18.3 °C 34293.4 hPa North 22.5 km/h 35.2 km/h 49 % 0 mm open2300-1.11 W/m2
06:12 -12.7 °C -18.6 °C 34303.6 hPa WNW 36 km/h 36 km/h 48 % 0 mm open2300-1.11 W/m2
07:12 -12.8 °C -18.7 °C 34337.4 hPa NNW 17.9 km/h 19.6 km/h 48 % 0 mm open2300-1.11 W/m2
08:12 -12.9 °C -18.4 °C 34347.6 hPa NNW 8 km/h 8 km/h 50 % 0 mm open2300-1.11 W/m2
09:12 -12.3 °C -17.8 °C 34371.3 hPa West 23 km/h 23 km/h 50 % 0 mm open2300-1.11 W/m2
10:12 -12.3 °C -17.6 °C 34371.3 hPa North 8 km/h 12.2 km/h 51 % 0 mm open2300-1.11 W/m2
11:12 -12.1 °C -17.3 °C 34371.3 hPa NW 7.6 km/h 7.6 km/h 52 % 0 mm open2300-1.11 W/m2
12:12 -11.8 °C -16.9 °C 34337.4 hPa West 13.2 km/h 13.2 km/h 53 % 0 mm open2300-1.11 W/m2
13:12 -11.8 °C -16.6 °C 34303.6 hPa Calm   2.9 km/h 56 % 0 mm open2300-1.11 W/m2
14:12 -11.9 °C -16.6 °C 34256.2 hPa Calm   8 km/h 56 % 0 mm open2300-1.11 W/m2
15:12 -11.8 °C -15.2 °C 34222.3 hPa Calm   11.6 km/h 66 % 0 mm open2300-1.11 W/m2
16:12 -11.9 °C -14.3 °C 34188.4 hPa Calm     74 % 12.7 mm open2300-1.11 W/m2
17:12 -11.6 °C -13.7 °C 34178.3 hPa NW 4.7 km/h 23.8 km/h 78 % 12.7 mm open2300-1.11 W/m2
18:12 -11.2 °C -13.2 °C 34154.6 hPa WSW 27.2 km/h 32.3 km/h 78 % 0 mm open2300-1.11 W/m2
19:12 -10.8 °C -13.1 °C 34144.4 hPa SSW 4.7 km/h 13.2 km/h 76 % 0 mm open2300-1.11 W/m2
20:12 -10.6 °C -12.7 °C 34130.9 hPa WNW 24.3 km/h 45.9 km/h 78 % 0 mm open2300-1.11 W/m2
21:12 -10.6 °C -12.6 °C 34107.2 hPa North 13.2 km/h 52.8 km/h 79 % 0 mm open2300-1.11 W/m2
22:12 -10.6 °C -12.5 °C 34086.9 hPa West 28.5 km/h 45.4 km/h 80 % 0 mm open2300-1.11 W/m2
23:12 -10.4 °C -12.3 °C 34086.9 hPa WNW 37 km/h 37 km/h 80 % 0 mm open2300-1.11 W/m2
Observations météo à CASSIS
WU-History script by Weather Underground - 1 mb